Time;durP1;ratioP1;P1;durP2;ratioP2;P2;SDS_P1;SDS_P2;PMS_P1;PMS_P2;Temp;Humidity;BMP_temperature;BMP_pressure;BME280_temperature;BME280_humidity;BME280_pressure;Samples;Min_cycle;Max_cycle;Signal;HPM_P1;HPM_P2
2021/09/28 00:00:56;;;;;;;4.93;3.72;;;;;;;;;;5084606;28;20604;-83
2021/09/28 00:03:21;;;;;;;6.22;3.60;;;;;;;;;;5107213;28;20028;-84
2021/09/28 00:05:48;;;;;;;9.00;4.47;;;;;;;;;;5104725;28;20055;-83
2021/09/28 00:08:14;;;;;;;7.40;4.55;;;;;;;;;;5104300;28;20403;-83
2021/09/28 00:10:40;;;;;;;7.88;4.30;;;;;;;;;;5107499;28;20055;-83
2021/09/28 00:13:06;;;;;;;8.70;3.80;;;;;;;;;;5106679;28;20471;-83
2021/09/28 00:15:32;;;;;;;7.38;4.00;;;;;;;;;;5104962;28;20035;-83
2021/09/28 00:17:57;;;;;;;9.57;4.47;;;;;;;;;;5102893;28;20123;-83
2021/09/28 00:20:23;;;;;;;7.22;4.95;;;;;;;;;;5104538;28;20085;-83
2021/09/28 00:22:53;;;;;;;7.57;5.30;;;;;;;;;;5106958;28;20028;-83
2021/09/28 00:25:20;;;;;;;9.68;6.10;;;;;;;;;;5112301;28;20036;-84
2021/09/28 00:27:46;;;;;;;12.15;5.65;;;;;;;;;;5116466;28;20055;-84
2021/09/28 00:30:12;;;;;;;9.75;5.22;;;;;;;;;;5126434;28;20024;-83
2021/09/28 00:32:38;;;;;;;12.90;6.57;;;;;;;;;;5133577;28;20040;-84
2021/09/28 00:35:04;;;;;;;13.40;6.70;;;;;;;;;;5125171;28;20049;-84
2021/09/28 00:37:29;;;;;;;13.20;6.28;;;;;;;;;;5123970;28;20039;-84
2021/09/28 00:39:55;;;;;;;11.45;6.50;;;;;;;;;;5126010;28;20069;-84
2021/09/28 00:42:20;;;;;;;15.07;7.63;;;;;;;;;;5123718;28;20058;-84
2021/09/28 00:44:46;;;;;;;16.55;8.32;;;;;;;;;;5124087;28;20036;-84
2021/09/28 00:47:13;;;;;;;12.40;6.97;;;;;;;;;;5124092;28;20031;-84
2021/09/28 00:49:41;;;;;;;11.35;7.47;;;;;;;;;;5122935;28;20032;-84
2021/09/28 00:52:09;;;;;;;12.57;7.18;;;;;;;;;;5124823;28;20036;-84
2021/09/28 00:54:37;;;;;;;9.40;6.55;;;;;;;;;;5105362;28;20126;-84
2021/09/28 00:57:07;;;;;;;9.57;6.75;;;;;;;;;;5124515;28;20554;-84
2021/09/28 00:59:37;;;;;;;11.48;8.07;;;;;;;;;;5117356;28;20875;-84
2021/09/28 01:02:07;;;;;;;9.43;7.43;;;;;;;;;;5083947;28;20040;-84
2021/09/28 01:04:33;;;;;;;11.38;7.93;;;;;;;;;;5102506;28;20043;-84
2021/09/28 01:06:59;;;;;;;12.05;7.63;;;;;;;;;;5100153;28;20024;-84
2021/09/28 01:09:25;;;;;;;12.60;8.13;;;;;;;;;;5100844;28;20032;-83
2021/09/28 01:11:51;;;;;;;12.75;8.77;;;;;;;;;;5099955;28;20058;-84
2021/09/28 01:14:17;;;;;;;18.45;9.40;;;;;;;;;;5100379;28;20040;-83
2021/09/28 01:16:42;;;;;;;17.45;9.40;;;;;;;;;;5099073;28;20049;-83
2021/09/28 01:19:07;;;;;;;11.48;7.82;;;;;;;;;;5100023;28;20035;-84
2021/09/28 01:21:33;;;;;;;10.82;8.15;;;;;;;;;;5100471;28;20032;-84
2021/09/28 01:23:59;;;;;;;18.92;9.10;;;;;;;;;;5101709;28;20508;-84
2021/09/28 01:26:25;;;;;;;17.40;8.93;;;;;;;;;;5101551;28;20028;-83
2021/09/28 01:28:52;;;;;;;18.10;8.48;;;;;;;;;;5100419;28;20081;-84
2021/09/28 01:31:19;;;;;;;10.55;7.82;;;;;;;;;;5101244;28;20440;-84
2021/09/28 01:33:44;;;;;;;10.23;7.80;;;;;;;;;;5098939;28;20127;-84
2021/09/28 01:36:10;;;;;;;21.17;8.80;;;;;;;;;;5101058;28;20089;-84
2021/09/28 01:38:36;;;;;;;11.57;7.70;;;;;;;;;;5099293;28;20036;-84
2021/09/28 01:41:02;;;;;;;10.75;7.57;;;;;;;;;;5100439;28;20039;-84
2021/09/28 01:43:27;;;;;;;12.48;8.25;;;;;;;;;;5100746;28;20071;-84
2021/09/28 01:45:59;;;;;;;11.48;8.10;;;;;;;;;;5098451;28;20463;-84
2021/09/28 01:48:33;;;;;;;11.75;6.25;;;;;;;;;;5100350;28;20035;-84
2021/09/28 01:50:58;;;;;;;8.27;6.72;;;;;;;;;;5100206;28;20039;-84
2021/09/28 01:53:24;;;;;;;12.25;8.25;;;;;;;;;;5102070;28;20040;-84
2021/09/28 01:55:49;;;;;;;13.13;10.23;;;;;;;;;;5104373;28;20113;-84
2021/09/28 01:58:15;;;;;;;34.85;14.18;;;;;;;;;;5103694;28;20036;-84
2021/09/28 02:00:41;;;;;;;16.48;10.60;;;;;;;;;;5101910;28;20024;-84
2021/09/28 02:03:07;;;;;;;17.50;10.30;;;;;;;;;;5101704;28;20061;-84
2021/09/28 02:05:32;;;;;;;16.17;9.80;;;;;;;;;;5102347;28;20044;-84
2021/09/28 02:07:57;;;;;;;16.63;11.07;;;;;;;;;;5102367;28;20052;-84
2021/09/28 02:10:23;;;;;;;15.18;10.88;;;;;;;;;;5101062;28;20089;-85
2021/09/28 02:12:48;;;;;;;15.55;12.32;;;;;;;;;;5102000;28;20043;-84
2021/09/28 02:15:14;;;;;;;15.27;9.10;;;;;;;;;;5084910;28;20061;-84
2021/09/28 02:17:40;;;;;;;12.27;9.52;;;;;;;;;;5120207;28;20027;-81
2021/09/28 02:20:06;;;;;;;9.45;8.48;;;;;;;;;;5118644;28;20517;-84
2021/09/28 02:22:32;;;;;;;15.95;7.70;;;;;;;;;;5118883;28;20375;-84
2021/09/28 02:24:57;;;;;;;10.82;8.00;;;;;;;;;;5118744;28;20124;-84
2021/09/28 02:27:22;;;;;;;10.07;7.45;;;;;;;;;;5117346;28;20466;-85
2021/09/28 02:29:48;;;;;;;9.15;7.70;;;;;;;;;;5105582;28;20111;-83
2021/09/28 02:32:13;;;;;;;13.27;8.35;;;;;;;;;;5096286;28;20049;-83
2021/09/28 02:34:39;;;;;;;12.98;9.15;;;;;;;;;;5097745;28;20047;-83
2021/09/28 02:37:05;;;;;;;17.15;9.55;;;;;;;;;;5096372;28;20032;-83
2021/09/28 02:39:31;;;;;;;14.52;10.32;;;;;;;;;;5097690;28;20500;-84
2021/09/28 02:41:57;;;;;;;17.10;9.65;;;;;;;;;;5095531;28;20040;-83
2021/09/28 02:44:22;;;;;;;15.27;9.77;;;;;;;;;;5095223;28;20056;-83
2021/09/28 02:46:47;;;;;;;7.35;6.32;;;;;;;;;;5096064;28;20028;-85
2021/09/28 02:49:14;;;;;;;9.30;5.68;;;;;;;;;;5079119;28;20032;-84
2021/09/28 02:51:39;;;;;;;5.85;5.32;;;;;;;;;;5097419;28;20122;-81
2021/09/28 02:54:05;;;;;;;13.70;6.10;;;;;;;;;;5095537;28;20082;-81
2021/09/28 02:56:30;;;;;;;39.35;8.82;;;;;;;;;;5096061;28;20036;-83
2021/09/28 02:59:02;;;;;;;8.80;7.18;;;;;;;;;;5111273;28;20058;-84
2021/09/28 03:01:27;;;;;;;11.05;5.78;;;;;;;;;;5119111;28;20038;-82
2021/09/28 03:03:53;;;;;;;6.63;6.00;;;;;;;;;;5115793;28;20043;-81
2021/09/28 03:06:18;;;;;;;7.75;6.05;;;;;;;;;;5117254;28;20039;-83
2021/09/28 03:08:43;;;;;;;5.97;4.30;;;;;;;;;;5116516;28;20070;-81
2021/09/28 03:11:10;;;;;;;9.65;6.53;;;;;;;;;;5116669;28;20039;-81
2021/09/28 03:13:36;;;;;;;8.13;6.40;;;;;;;;;;5114609;28;20036;-81
2021/09/28 03:16:01;;;;;;;12.65;8.07;;;;;;;;;;5105508;28;20036;-81
2021/09/28 03:18:27;;;;;;;12.63;9.23;;;;;;;;;;5095629;28;20475;-81
2021/09/28 03:20:52;;;;;;;11.05;8.77;;;;;;;;;;5094790;28;20470;-81
2021/09/28 03:23:17;;;;;;;14.27;10.07;;;;;;;;;;5094086;28;20039;-81
2021/09/28 03:25:43;;;;;;;13.30;8.38;;;;;;;;;;5096160;28;20023;-81
2021/09/28 03:28:08;;;;;;;9.95;7.38;;;;;;;;;;5098462;28;20028;-82
2021/09/28 03:30:34;;;;;;;6.97;6.20;;;;;;;;;;5097174;28;20077;-82
2021/09/28 03:32:59;;;;;;;12.10;5.85;;;;;;;;;;5097852;28;20157;-82
2021/09/28 03:35:25;;;;;;;19.90;6.97;;;;;;;;;;5097864;28;20040;-81
2021/09/28 03:37:53;;;;;;;39.53;8.55;;;;;;;;;;5097961;28;20057;-82
2021/09/28 03:40:19;;;;;;;20.02;10.25;;;;;;;;;;5079024;28;20035;-81
2021/09/28 03:42:44;;;;;;;14.05;10.80;;;;;;;;;;5096394;28;20032;-81
2021/09/28 03:45:10;;;;;;;15.63;9.90;;;;;;;;;;5096159;28;20494;-81
2021/09/28 03:47:36;;;;;;;11.48;10.10;;;;;;;;;;5096964;28;20543;-81
2021/09/28 03:50:02;;;;;;;18.95;11.15;;;;;;;;;;5097049;28;20040;-81
2021/09/28 03:52:27;;;;;;;21.25;12.75;;;;;;;;;;5094723;28;20036;-81
2021/09/28 03:54:52;;;;;;;16.63;12.27;;;;;;;;;;5094959;28;20044;-81
2021/09/28 03:57:18;;;;;;;15.27;10.57;;;;;;;;;;5096105;28;20077;-81
2021/09/28 03:59:46;;;;;;;14.18;11.23;;;;;;;;;;5094342;28;20113;-81
2021/09/28 04:02:11;;;;;;;12.75;10.13;;;;;;;;;;5095865;28;20036;-81
2021/09/28 04:04:37;;;;;;;16.05;9.82;;;;;;;;;;5095869;28;20039;-81
2021/09/28 04:07:02;;;;;;;18.30;10.13;;;;;;;;;;5095563;28;20039;-81
2021/09/28 04:09:28;;;;;;;16.88;10.25;;;;;;;;;;5095369;28;20028;-81
2021/09/28 04:11:53;;;;;;;44.95;12.55;;;;;;;;;;5094150;28;20661;-81
2021/09/28 04:14:19;;;;;;;21.52;11.85;;;;;;;;;;5083020;28;20032;-81
2021/09/28 04:16:44;;;;;;;30.45;10.10;;;;;;;;;;5074948;28;20040;-81
2021/09/28 04:19:09;;;;;;;17.60;12.10;;;;;;;;;;5074639;28;20037;-81
2021/09/28 04:21:37;;;;;;;19.25;12.45;;;;;;;;;;5074898;28;20040;-82
2021/09/28 04:24:03;;;;;;;22.60;12.38;;;;;;;;;;5075232;28;20287;-81
2021/09/28 04:26:28;;;;;;;24.65;14.73;;;;;;;;;;5074755;28;20475;-81
2021/09/28 04:28:54;;;;;;;26.58;14.35;;;;;;;;;;5072982;28;20040;-81
2021/09/28 04:31:19;;;;;;;30.85;14.70;;;;;;;;;;5074931;28;20029;-81
2021/09/28 04:33:44;;;;;;;24.52;14.05;;;;;;;;;;5073447;28;20456;-80
2021/09/28 04:36:10;;;;;;;25.85;14.10;;;;;;;;;;5078023;28;20040;-78
2021/09/28 04:38:36;;;;;;;20.95;13.68;;;;;;;;;;5077907;28;20122;-80
2021/09/28 04:41:02;;;;;;;24.42;14.38;;;;;;;;;;5060101;28;20366;-80
2021/09/28 04:43:27;;;;;;;24.42;14.88;;;;;;;;;;5077537;28;20070;-80
2021/09/28 04:45:53;;;;;;;20.13;14.38;;;;;;;;;;5079250;28;20545;-80
2021/09/28 04:48:18;;;;;;;27.27;15.55;;;;;;;;;;5078644;28;20040;-81
2021/09/28 04:50:46;;;;;;;27.05;14.18;;;;;;;;;;5076509;28;20552;-80
2021/09/28 04:53:12;;;;;;;23.02;15.13;;;;;;;;;;5077466;28;20102;-80
2021/09/28 04:55:38;;;;;;;16.45;13.70;;;;;;;;;;5081287;28;20032;-80
2021/09/28 04:58:04;;;;;;;17.48;13.18;;;;;;;;;;5086678;28;20032;-80
2021/09/28 05:00:30;;;;;;;21.30;14.18;;;;;;;;;;5101895;28;20126;-80
2021/09/28 05:02:55;;;;;;;21.58;14.40;;;;;;;;;;5099684;28;20114;-80
2021/09/28 05:05:21;;;;;;;21.63;12.55;;;;;;;;;;5101521;28;20079;-80
2021/09/28 05:07:47;;;;;;;20.95;13.98;;;;;;;;;;5100846;28;20044;-80
2021/09/28 05:10:12;;;;;;;25.58;13.88;;;;;;;;;;5100593;28;20584;-82
2021/09/28 05:12:58;;;;;;;19.95;12.50;;;;;;;;;;5101794;28;20032;-79
2021/09/28 05:15:23;;;;;;;17.77;12.47;;;;;;;;;;5081051;28;20064;-80
2021/09/28 05:17:48;;;;;;;19.95;12.25;;;;;;;;;;5098464;28;20311;-84
2021/09/28 05:20:14;;;;;;;17.08;12.40;;;;;;;;;;5098058;28;20024;-80
2021/09/28 05:22:42;;;;;;;23.38;13.63;;;;;;;;;;5101989;28;20399;-84
2021/09/28 05:25:09;;;;;;;15.95;11.73;;;;;;;;;;5102393;28;20024;-82
2021/09/28 05:27:34;;;;;;;14.00;11.68;;;;;;;;;;5099565;28;20062;-80
2021/09/28 05:30:00;;;;;;;16.95;11.25;;;;;;;;;;5099666;28;20052;-83
2021/09/28 05:32:25;;;;;;;16.67;11.85;;;;;;;;;;5099495;28;20043;-82
2021/09/28 05:34:50;;;;;;;13.15;9.95;;;;;;;;;;5099974;28;20032;-81
2021/09/28 05:37:16;;;;;;;10.88;8.40;;;;;;;;;;5100585;28;20038;-80
2021/09/28 05:39:41;;;;;;;16.33;10.07;;;;;;;;;;5100915;28;20087;-81
2021/09/28 05:42:07;;;;;;;15.38;10.05;;;;;;;;;;5099497;28;20051;-80
2021/09/28 05:44:32;;;;;;;17.08;11.73;;;;;;;;;;5099687;28;20036;-82
2021/09/28 05:46:59;;;;;;;19.58;10.93;;;;;;;;;;5098855;28;20036;-80
2021/09/28 05:49:25;;;;;;;11.82;10.55;;;;;;;;;;5098826;28;20036;-82
2021/09/28 05:51:53;;;;;;;14.15;10.07;;;;;;;;;;5098529;28;20035;-81
2021/09/28 05:54:20;;;;;;;11.32;9.77;;;;;;;;;;5098746;28;20028;-82
2021/09/28 05:56:50;;;;;;;25.73;12.35;;;;;;;;;;5084759;28;20119;-82
2021/09/28 05:59:17;;;;;;;15.20;10.98;;;;;;;;;;5096797;28;20479;-80
2021/09/28 06:01:42;;;;;;;13.27;10.95;;;;;;;;;;5098660;28;20118;-80
2021/09/28 06:04:08;;;;;;;20.92;15.10;;;;;;;;;;5097794;28;20074;-81
2021/09/28 06:06:34;;;;;;;26.42;15.48;;;;;;;;;;5098368;28;20073;-81
2021/09/28 06:09:01;;;;;;;27.20;17.08;;;;;;;;;;5096428;28;20048;-80
2021/09/28 06:11:27;;;;;;;30.70;16.33;;;;;;;;;;5079869;28;20432;-81
2021/09/28 06:13:52;;;;;;;25.70;16.58;;;;;;;;;;5097867;28;20229;-80
2021/09/28 06:16:18;;;;;;;25.83;17.10;;;;;;;;;;5096532;28;20036;-80
2021/09/28 06:18:44;;;;;;;24.05;16.05;;;;;;;;;;5097767;28;20044;-80
2021/09/28 06:21:09;;;;;;;26.88;16.35;;;;;;;;;;5097714;28;20075;-80
2021/09/28 06:23:35;;;;;;;28.88;17.20;;;;;;;;;;5097342;28;20112;-81
2021/09/28 06:26:02;;;;;;;37.10;16.98;;;;;;;;;;5096514;28;20032;-81
2021/09/28 06:28:29;;;;;;;67.07;18.25;;;;;;;;;;5094090;28;20040;-80
2021/09/28 06:30:55;;;;;;;92.63;17.13;;;;;;;;;;5097207;28;20032;-81
2021/09/28 06:33:21;;;;;;;67.40;19.25;;;;;;;;;;5096662;28;20081;-81
2021/09/28 06:35:46;;;;;;;35.00;16.95;;;;;;;;;;5099121;28;20028;-81
2021/09/28 06:38:12;;;;;;;49.90;17.70;;;;;;;;;;5097288;28;20035;-81
2021/09/28 06:40:37;;;;;;;59.58;15.80;;;;;;;;;;5098279;28;20027;-81
2021/09/28 06:43:06;;;;;;;99.97;16.52;;;;;;;;;;5098260;28;20044;-81
2021/09/28 06:45:32;;;;;;;24.38;16.30;;;;;;;;;;5097904;28;20043;-81
2021/09/28 06:47:57;;;;;;;26.52;15.73;;;;;;;;;;5097606;28;20039;-81
2021/09/28 06:50:22;;;;;;;25.15;16.10;;;;;;;;;;5097981;28;20039;-81
2021/09/28 06:52:48;;;;;;;20.20;16.65;;;;;;;;;;5096901;28;20047;-81
2021/09/28 06:55:14;;;;;;;59.03;18.15;;;;;;;;;;5095852;28;20118;-81
2021/09/28 06:57:40;;;;;;;24.33;16.80;;;;;;;;;;5093641;28;20048;-81
2021/09/28 07:00:06;;;;;;;64.50;17.67;;;;;;;;;;5073902;28;20032;-81
2021/09/28 07:02:32;;;;;;;44.85;17.05;;;;;;;;;;5073871;28;20510;-81
2021/09/28 07:04:57;;;;;;;149.07;19.88;;;;;;;;;;5074530;28;20040;-80
2021/09/28 07:07:24;;;;;;;31.23;17.88;;;;;;;;;;5076097;28;20045;-80
2021/09/28 07:09:50;;;;;;;152.32;19.58;;;;;;;;;;5075304;28;20059;-81
2021/09/28 07:12:16;;;;;;;35.55;18.02;;;;;;;;;;5074986;28;20040;-81
2021/09/28 07:14:41;;;;;;;96.20;18.88;;;;;;;;;;5075600;28;20141;-81
2021/09/28 07:17:07;;;;;;;33.58;17.05;;;;;;;;;;5075698;28;20033;-80
2021/09/28 07:19:32;;;;;;;28.00;17.25;;;;;;;;;;5075397;28;20028;-81
2021/09/28 07:21:58;;;;;;;26.90;16.08;;;;;;;;;;5075487;28;20376;-81
2021/09/28 07:24:24;;;;;;;20.45;14.82;;;;;;;;;;5075819;28;20039;-80
2021/09/28 07:26:49;;;;;;;19.27;14.93;;;;;;;;;;5075457;28;20084;-81
2021/09/28 07:29:15;;;;;;;20.02;15.10;;;;;;;;;;5087500;28;20518;-81
2021/09/28 07:31:40;;;;;;;15.40;12.82;;;;;;;;;;5095659;28;20032;-81
2021/09/28 07:34:06;;;;;;;17.00;13.32;;;;;;;;;;5095441;28;20040;-81
2021/09/28 07:36:31;;;;;;;14.32;11.13;;;;;;;;;;5095682;28;20040;-81
2021/09/28 07:38:57;;;;;;;19.63;12.40;;;;;;;;;;5095557;28;20031;-81
2021/09/28 07:41:22;;;;;;;15.50;10.63;;;;;;;;;;5095424;28;20043;-81
2021/09/28 07:43:48;;;;;;;16.00;11.07;;;;;;;;;;5095104;28;20046;-81
2021/09/28 07:46:13;;;;;;;16.77;11.18;;;;;;;;;;5094987;28;20097;-81
2021/09/28 07:48:39;;;;;;;17.42;14.07;;;;;;;;;;5093669;28;20043;-81
2021/09/28 07:51:04;;;;;;;20.63;15.23;;;;;;;;;;5095344;28;20035;-81
2021/09/28 07:53:30;;;;;;;19.20;14.93;;;;;;;;;;5095861;28;20036;-81
2021/09/28 07:55:55;;;;;;;17.77;13.05;;;;;;;;;;5096089;28;20039;-81
2021/09/28 07:58:21;;;;;;;21.50;14.77;;;;;;;;;;5094906;28;20406;-81
2021/09/28 08:00:47;;;;;;;19.67;14.68;;;;;;;;;;5094611;28;20497;-81
2021/09/28 08:03:13;;;;;;;19.48;15.02;;;;;;;;;;5094859;28;20036;-81
2021/09/28 08:05:38;;;;;;;21.00;15.38;;;;;;;;;;5095441;28;20123;-81
2021/09/28 08:08:05;;;;;;;22.40;14.60;;;;;;;;;;5097250;28;20052;-81
2021/09/28 08:10:30;;;;;;;14.95;11.70;;;;;;;;;;5101326;28;20036;-81
2021/09/28 08:12:59;;;;;;;16.63;11.30;;;;;;;;;;5100543;28;20130;-81
2021/09/28 08:15:26;;;;;;;16.67;11.68;;;;;;;;;;5100352;28;20073;-81
2021/09/28 08:17:51;;;;;;;16.63;9.90;;;;;;;;;;5100751;28;20036;-81
2021/09/28 08:20:19;;;;;;;11.80;8.23;;;;;;;;;;5098945;28;20078;-81
2021/09/28 08:22:45;;;;;;;15.07;9.90;;;;;;;;;;5098097;28;20418;-81
2021/09/28 08:25:13;;;;;;;13.63;9.48;;;;;;;;;;5098868;28;20048;-81
2021/09/28 08:30:23;;;;;;;17.77;12.23;;;;;;;;;;5099884;28;20032;-81
2021/09/28 08:32:49;;;;;;;17.48;10.73;;;;;;;;;;5099418;28;20036;-80
2021/09/28 08:35:15;;;;;;;14.32;10.25;;;;;;;;;;5099156;28;20035;-80
2021/09/28 08:37:41;;;;;;;22.52;11.63;;;;;;;;;;5098561;28;20559;-81
2021/09/28 08:40:07;;;;;;;21.65;11.13;;;;;;;;;;5099034;28;20063;-80
2021/09/28 08:42:32;;;;;;;16.75;9.25;;;;;;;;;;5097074;28;20475;-80
2021/09/28 08:44:58;;;;;;;15.95;11.02;;;;;;;;;;5099055;28;20088;-80
2021/09/28 08:47:41;;;;;;;15.63;9.95;;;;;;;;;;5098771;28;20070;-80
2021/09/28 08:50:11;;;;;;;18.77;10.48;;;;;;;;;;5099061;28;20032;-80
2021/09/28 08:52:39;;;;;;;18.40;10.90;;;;;;;;;;5098856;28;20399;-81
2021/09/28 08:55:04;;;;;;;21.95;9.80;;;;;;;;;;5100993;28;20040;-82
2021/09/28 08:57:30;;;;;;;17.10;9.07;;;;;;;;;;5100372;28;20036;-81
2021/09/28 08:59:59;;;;;;;21.63;8.48;;;;;;;;;;5102155;28;20082;-81
2021/09/28 09:02:39;;;;;;;17.52;8.30;;;;;;;;;;5101070;28;20047;-82
2021/09/28 09:05:16;;;;;;;21.13;10.27;;;;;;;;;;5104271;28;20046;-81
2021/09/28 09:07:42;;;;;;;23.67;10.95;;;;;;;;;;5081961;28;20055;-81
2021/09/28 09:10:09;;;;;;;20.77;11.07;;;;;;;;;;5100684;28;20043;-78
2021/09/28 09:12:40;;;;;;;23.85;10.90;;;;;;;;;;5099364;28;20043;-78
2021/09/28 09:15:17;;;;;;;21.27;10.75;;;;;;;;;;5094300;28;20035;-78
2021/09/28 09:17:43;;;;;;;20.85;10.57;;;;;;;;;;5077440;28;20036;-77
2021/09/28 09:20:28;;;;;;;23.55;10.50;;;;;;;;;;5074767;28;20029;-77
2021/09/28 09:22:56;;;;;;;21.00;10.68;;;;;;;;;;5074585;28;20117;-77
2021/09/28 09:25:23;;;;;;;20.17;9.63;;;;;;;;;;5075340;28;20036;-77
2021/09/28 09:27:49;;;;;;;15.02;8.63;;;;;;;;;;5064017;28;20028;-81
2021/09/28 09:30:21;;;;;;;22.48;10.48;;;;;;;;;;5071673;28;20038;-76
2021/09/28 09:32:51;;;;;;;22.52;9.25;;;;;;;;;;5072309;28;20061;-80
2021/09/28 09:35:30;;;;;;;28.75;10.18;;;;;;;;;;5070841;28;20024;-81
2021/09/28 09:38:06;;;;;;;17.05;8.73;;;;;;;;;;5075671;28;20364;-78
2021/09/28 09:40:36;;;;;;;;;;;;;;;;;;5101844;28;20038;-79
2021/09/28 09:43:02;;;;;;;15.70;7.22;;;;;;;;;;5100691;28;19912;-79
2021/09/28 09:45:27;;;;;;;20.30;7.30;;;;;;;;;;5097498;28;20062;-80
2021/09/28 09:47:53;;;;;;;23.65;7.57;;;;;;;;;;5078815;28;20027;-77
2021/09/28 09:50:20;;;;;;;13.07;5.00;;;;;;;;;;5095291;28;20073;-78
2021/09/28 09:53:08;;;;;;;20.45;5.35;;;;;;;;;;5094364;28;20063;-76
2021/09/28 09:55:35;;;;;;;15.93;6.38;;;;;;;;;;5094535;28;20046;-77
2021/09/28 09:58:02;;;;;;;14.77;5.88;;;;;;;;;;5096907;28;20039;-79
2021/09/28 10:00:28;;;;;;;13.15;4.82;;;;;;;;;;5095565;28;20031;-79
2021/09/28 10:02:54;;;;;;;20.00;5.20;;;;;;;;;;5097251;28;20406;-83
2021/09/28 10:05:20;;;;;;;15.00;4.82;;;;;;;;;;5100925;28;20028;-79
2021/09/28 10:07:49;;;;;;;17.90;4.80;;;;;;;;;;5097136;28;20051;-78
2021/09/28 10:10:16;;;;;;;16.90;5.00;;;;;;;;;;5095552;28;20032;-78
2021/09/28 10:12:42;;;;;;;19.52;5.70;;;;;;;;;;5098035;28;20093;-79
2021/09/28 10:15:09;;;;;;;16.08;6.15;;;;;;;;;;5094461;28;20040;-78
2021/09/28 10:17:40;;;;;;;21.08;5.55;;;;;;;;;;5094343;28;20044;-80
2021/09/28 10:20:30;;;;;;;16.55;5.03;;;;;;;;;;5095413;28;20439;-77
2021/09/28 10:23:20;;;;;;;17.65;6.78;;;;;;;;;;5092793;28;20097;-78
2021/09/28 10:25:46;;;;;;;10.73;4.55;;;;;;;;;;5094001;28;20059;-77
2021/09/28 10:28:12;;;;;;;14.15;5.15;;;;;;;;;;5093744;28;20068;-77
2021/09/28 10:30:45;;;;;;;12.35;4.45;;;;;;;;;;5091368;28;20512;-78
2021/09/28 10:33:22;;;;;;;17.65;5.65;;;;;;;;;;5093687;28;20379;-78
2021/09/28 10:35:58;;;;;;;15.43;5.07;;;;;;;;;;5093597;28;20047;-78
2021/09/28 10:38:53;;;;;;;12.15;4.07;;;;;;;;;;5094205;28;20444;-78
2021/09/28 10:41:41;;;;;;;13.90;4.70;;;;;;;;;;5083829;28;20028;-79
2021/09/28 10:44:25;;;;;;;16.67;5.00;;;;;;;;;;5079670;28;20051;-76
2021/09/28 10:46:51;;;;;;;19.85;5.03;;;;;;;;;;5092693;28;20027;-75
2021/09/28 10:49:27;;;;;;;11.93;4.47;;;;;;;;;;5093162;28;20028;-76
2021/09/28 10:52:27;;;;;;;;;;;;;;;;;;5093889;28;20040;-76
2021/09/28 10:55:12;;;;;;;19.90;5.30;;;;;;;;;;5048753;28;19938;-76
2021/09/28 10:57:56;;;;;;;15.48;5.00;;;;;;;;;;5084498;28;20054;-76
2021/09/28 11:00:26;;;;;;;9.80;4.15;;;;;;;;;;5090409;28;20051;-75
2021/09/28 11:02:59;;;;;;;15.32;4.25;;;;;;;;;;5092292;28;20038;-75
2021/09/28 11:05:39;;;;;;;12.82;3.78;;;;;;;;;;5092714;28;20059;-76
2021/09/28 11:08:07;;;;;;;16.77;4.22;;;;;;;;;;5093141;28;20043;-76
2021/09/28 11:10:33;;;;;;;13.90;3.53;;;;;;;;;;5093237;28;20067;-75
2021/09/28 11:13:11;;;;;;;10.05;3.60;;;;;;;;;;5091909;28;20829;-76
2021/09/28 11:15:37;;;;;;;19.27;6.45;;;;;;;;;;5090651;28;20395;-76
2021/09/28 11:18:13;;;;;;;10.07;3.53;;;;;;;;;;5089859;28;20424;-76
2021/09/28 11:20:41;;;;;;;13.90;3.72;;;;;;;;;;5090605;28;20039;-76
2021/09/28 11:23:11;;;;;;;15.20;3.95;;;;;;;;;;5072510;28;20037;-75
2021/09/28 11:25:40;;;;;;;14.45;4.00;;;;;;;;;;5071868;28;20066;-75
2021/09/28 11:28:11;;;;;;;10.43;3.85;;;;;;;;;;5091845;28;20032;-76
2021/09/28 11:30:50;;;;;;;11.88;3.63;;;;;;;;;;5090792;28;20039;-77
2021/09/28 11:33:16;;;;;;;14.48;4.10;;;;;;;;;;5092571;28;20379;-76
2021/09/28 11:35:58;;;;;;;13.45;3.85;;;;;;;;;;5091863;28;20032;-77
2021/09/28 11:38:28;;;;;;;7.78;2.67;;;;;;;;;;5092842;28;20126;-75
2021/09/28 11:40:59;;;;;;;14.23;3.42;;;;;;;;;;5091390;28;20051;-76
2021/09/28 11:43:28;;;;;;;10.13;3.67;;;;;;;;;;5091855;28;20063;-76
2021/09/28 11:45:59;;;;;;;12.18;3.55;;;;;;;;;;5095970;28;20055;-76
2021/09/28 11:48:27;;;;;;;14.13;3.30;;;;;;;;;;5096226;28;20040;-76
2021/09/28 11:50:52;;;;;;;7.45;3.38;;;;;;;;;;5093949;28;20036;-76
2021/09/28 11:53:17;;;;;;;9.95;2.67;;;;;;;;;;5096203;28;20111;-76
2021/09/28 11:55:43;;;;;;;14.75;2.33;;;;;;;;;;5094943;28;20042;-76
2021/09/28 11:58:08;;;;;;;9.48;2.50;;;;;;;;;;5094775;28;20417;-76
2021/09/28 12:00:35;;;;;;;10.18;2.38;;;;;;;;;;5095239;28;20024;-76
2021/09/28 12:03:08;;;;;;;8.73;2.97;;;;;;;;;;5095039;28;20734;-76
2021/09/28 12:08:22;;;;;;;12.63;2.95;;;;;;;;;;5096022;28;20544;-76
2021/09/28 12:10:48;;;;;;;9.93;2.33;;;;;;;;;;5095675;28;20028;-76
2021/09/28 12:13:21;;;;;;;14.50;3.10;;;;;;;;;;5094978;28;20043;-76
2021/09/28 12:16:08;;;;;;;9.45;2.20;;;;;;;;;;5096312;28;20047;-76
2021/09/28 12:18:34;;;;;;;12.70;2.75;;;;;;;;;;5094408;28;20028;-76
2021/09/28 12:21:25;;;;;;;10.32;3.17;;;;;;;;;;5095116;28;20028;-76
2021/09/28 12:24:13;;;;;;;7.45;2.00;;;;;;;;;;5095263;28;20032;-76
2021/09/28 12:26:38;;;;;;;14.20;3.22;;;;;;;;;;5095891;28;20028;-76
2021/09/28 12:29:16;;;;;;;10.13;2.22;;;;;;;;;;5095323;28;20101;-76
2021/09/28 12:31:41;;;;;;;7.43;2.08;;;;;;;;;;5096119;28;20043;-76
2021/09/28 12:34:07;;;;;;;14.07;2.97;;;;;;;;;;5095452;28;20131;-76
2021/09/28 12:36:33;;;;;;;15.57;2.28;;;;;;;;;;5095230;28;20043;-76
2021/09/28 12:39:20;;;;;;;10.13;2.17;;;;;;;;;;5095405;28;20027;-76
2021/09/28 12:42:08;;;;;;;10.02;2.30;;;;;;;;;;5094919;28;20027;-76
2021/09/28 12:44:38;;;;;;;10.57;2.55;;;;;;;;;;5094306;28;20048;-76
2021/09/28 12:47:29;;;;;;;7.30;2.20;;;;;;;;;;5095486;28;20039;-76
2021/09/28 12:49:54;;;;;;;10.52;2.40;;;;;;;;;;5093150;28;20032;-76
2021/09/28 12:52:20;;;;;;;7.85;2.15;;;;;;;;;;5094418;28;20107;-76
2021/09/28 12:54:45;;;;;;;4.82;1.75;;;;;;;;;;5093846;28;20089;-76
2021/09/28 12:57:11;;;;;;;10.23;2.70;;;;;;;;;;5093705;28;20436;-76
2021/09/28 12:59:36;;;;;;;12.93;2.63;;;;;;;;;;5093913;28;20399;-76
2021/09/28 13:02:01;;;;;;;5.40;2.25;;;;;;;;;;5094133;28;20020;-76
2021/09/28 13:04:27;;;;;;;8.40;2.35;;;;;;;;;;5094254;28;20526;-76
2021/09/28 13:06:56;;;;;;;13.13;2.47;;;;;;;;;;5094017;28;20067;-76
2021/09/28 13:09:21;;;;;;;6.63;1.90;;;;;;;;;;5094224;28;20032;-75
2021/09/28 13:11:47;;;;;;;12.20;2.35;;;;;;;;;;5094963;28;20463;-77
2021/09/28 13:14:13;;;;;;;7.28;1.90;;;;;;;;;;5095013;28;20039;-76
2021/09/28 13:16:38;;;;;;;7.65;1.73;;;;;;;;;;5093877;28;20082;-76
2021/09/28 13:19:04;;;;;;;7.13;1.75;;;;;;;;;;5092940;28;20032;-76
2021/09/28 13:21:30;;;;;;;8.52;1.88;;;;;;;;;;5095391;28;20437;-76
2021/09/28 13:23:56;;;;;;;8.43;2.10;;;;;;;;;;5093916;28;20040;-76
2021/09/28 13:26:22;;;;;;;9.60;1.95;;;;;;;;;;5093938;28;20032;-76
2021/09/28 13:28:48;;;;;;;10.07;2.17;;;;;;;;;;5092683;28;20043;-76
2021/09/28 13:31:13;;;;;;;8.85;1.90;;;;;;;;;;5092868;28;20127;-76
2021/09/28 13:33:39;;;;;;;6.82;2.20;;;;;;;;;;5093896;28;20032;-76
2021/09/28 13:36:04;;;;;;;9.35;2.03;;;;;;;;;;5093422;28;20059;-76
2021/09/28 13:38:29;;;;;;;8.35;2.15;;;;;;;;;;5094224;28;20032;-76
2021/09/28 13:40:55;;;;;;;8.82;2.15;;;;;;;;;;5091391;28;20035;-76
2021/09/28 13:43:22;;;;;;;7.18;1.70;;;;;;;;;;5093690;28;20040;-76
2021/09/28 13:45:47;;;;;;;5.72;1.77;;;;;;;;;;5094180;28;20382;-76
2021/09/28 13:48:13;;;;;;;5.68;1.70;;;;;;;;;;5093030;28;20032;-76
2021/09/28 13:50:40;;;;;;;4.80;1.85;;;;;;;;;;5092614;28;20040;-76
2021/09/28 13:53:05;;;;;;;6.65;1.80;;;;;;;;;;5093840;28;20028;-76
2021/09/28 13:55:32;;;;;;;5.75;1.88;;;;;;;;;;5094272;28;20544;-76
2021/09/28 13:57:58;;;;;;;5.88;1.85;;;;;;;;;;5091271;28;20024;-76
2021/09/28 14:00:24;;;;;;;10.45;1.58;;;;;;;;;;5092139;28;20032;-76
2021/09/28 14:02:49;;;;;;;9.55;2.35;;;;;;;;;;5091780;28;20092;-76
2021/09/28 14:05:15;;;;;;;8.02;1.60;;;;;;;;;;5091032;28;20049;-76
2021/09/28 14:07:40;;;;;;;6.93;1.75;;;;;;;;;;5092396;28;20044;-76
2021/09/28 14:10:07;;;;;;;7.38;2.28;;;;;;;;;;5091710;28;20047;-79
2021/09/28 14:12:32;;;;;;;5.88;1.65;;;;;;;;;;5092706;28;20038;-76
2021/09/28 14:14:58;;;;;;;7.28;1.58;;;;;;;;;;5091316;28;20115;-76
2021/09/28 14:17:23;;;;;;;6.15;1.80;;;;;;;;;;5092854;28;20043;-77
2021/09/28 14:19:48;;;;;;;5.80;1.70;;;;;;;;;;5093126;28;20125;-77
2021/09/28 14:22:14;;;;;;;5.18;1.73;;;;;;;;;;5091931;28;21785;-76
2021/09/28 14:24:39;;;;;;;6.20;1.58;;;;;;;;;;5076151;28;20070;-78
2021/09/28 14:27:05;;;;;;;5.10;1.98;;;;;;;;;;5092926;28;20024;-77
2021/09/28 14:29:30;;;;;;;6.53;1.88;;;;;;;;;;5091160;28;20028;-77
2021/09/28 14:31:55;;;;;;;4.80;1.50;;;;;;;;;;5093048;28;20525;-76
2021/09/28 14:34:21;;;;;;;8.23;1.90;;;;;;;;;;5090958;28;20096;-76
2021/09/28 14:36:46;;;;;;;6.13;1.90;;;;;;;;;;5092055;28;20108;-77